Time;durP1;ratioP1;P1;durP2;ratioP2;P2;SDS_P1;SDS_P2;PMS_P1;PMS_P2;Temp;Humidity;BMP_temperature;BMP_pressure;BME280_temperature;BME280_humidity;BME280_pressure;Samples;Min_cycle;Max_cycle;Signal;HPM_P1;HPM_P2
2023/04/29 00:01:51;;;;;;;;;;;9.90;99.90;;;;;;5096286;28;19967;-81
2023/04/29 00:04:16;;;;;;;;;;;9.90;99.90;;;;;;5096378;28;19986;-82
2023/04/29 00:06:42;;;;;;;;;;;9.90;99.90;;;;;;5079635;28;19932;-81
2023/04/29 00:09:08;;;;;;;;;;;9.90;99.90;;;;;;5096197;28;19924;-82
2023/04/29 00:11:33;;;;;;;;;;;9.90;99.90;;;;;;5097100;28;20382;-82
2023/04/29 00:13:59;;;;;;;;;;;9.80;99.90;;;;;;5082672;28;20011;-82
2023/04/29 00:16:24;;;;;;;;;;;9.80;99.90;;;;;;5063406;28;19985;-81
2023/04/29 00:18:50;;;;;;;;;;;9.80;99.90;;;;;;5077718;28;20390;-81
2023/04/29 00:21:16;;;;;;;;;;;9.80;99.90;;;;;;5079188;28;19971;-81
2023/04/29 00:23:41;;;;;;;;;;;9.80;99.90;;;;;;5095657;28;19926;-82
2023/04/29 00:26:07;;;;;;;;;;;9.70;99.90;;;;;;5077277;28;19947;-82
2023/04/29 00:28:32;;;;;;;;;;;9.80;99.90;;;;;;5061730;28;19979;-82
2023/04/29 00:30:58;;;;;;;;;;;9.70;99.90;;;;;;5078618;28;19928;-82
2023/04/29 00:33:23;;;;;;;;;;;9.70;99.90;;;;;;5063128;28;19929;-82
2023/04/29 00:35:49;;;;;;;;;;;9.70;99.90;;;;;;5095648;28;19935;-81
2023/04/29 00:38:15;;;;;;;;;;;9.70;99.90;;;;;;5077439;28;19996;-82
2023/04/29 00:40:42;;;;;;;;;;;9.70;99.90;;;;;;5094760;28;19924;-82
2023/04/29 00:43:08;;;;;;;;;;;9.70;99.90;;;;;;5076691;28;20450;-82
2023/04/29 00:45:33;;;;;;;;;;;9.70;99.90;;;;;;5095332;28;19975;-81
2023/04/29 00:47:59;;;;;;;;;;;9.70;99.90;;;;;;5094399;28;19995;-81
2023/04/29 00:50:24;;;;;;;;;;;9.60;99.90;;;;;;5077881;28;19930;-82
2023/04/29 00:52:51;;;;;;;;;;;9.60;99.90;;;;;;5065784;28;19935;-82
2023/04/29 00:55:17;;;;;;;;;;;9.60;99.90;;;;;;5082549;28;19970;-82
2023/04/29 00:57:43;;;;;;;;;;;9.50;99.90;;;;;;5063154;28;20015;-82
2023/04/29 01:00:09;;;;;;;;;;;9.50;99.90;;;;;;5077763;28;19931;-81
2023/04/29 01:02:34;;;;;;;;;;;9.50;99.90;;;;;;5046467;28;19928;-82
2023/04/29 01:05:00;;;;;;;;;;;9.50;99.90;;;;;;5093229;28;19928;-82
2023/04/29 01:07:25;;;;;;;;;;;9.50;99.90;;;;;;5070692;28;19932;-82
2023/04/29 01:10:13;;;;;;;;;;;9.40;99.90;;;;;;5064714;28;20031;-82
2023/04/29 01:12:42;;;;;;;;;;;9.40;99.90;;;;;;5061496;28;19956;-82
2023/04/29 01:15:08;;;;;;;;;;;9.40;99.90;;;;;;5095712;28;19992;-81
2023/04/29 01:17:53;;;;;;;;;;;9.40;99.90;;;;;;5074678;28;19972;-82
2023/04/29 01:20:19;;;;;;;;;;;9.40;99.90;;;;;;5094101;28;20283;-82
2023/04/29 01:22:46;;;;;;;;;;;9.40;99.90;;;;;;5081651;28;20014;-82
2023/04/29 01:25:11;;;;;;;;;;;9.40;99.90;;;;;;5078776;28;20046;-82
2023/04/29 01:27:56;;;;;;;;;;;9.40;99.90;;;;;;5078493;28;20345;-82
2023/04/29 01:30:29;;;;;;;;;;;9.40;99.90;;;;;;5062159;28;19928;-82
2023/04/29 01:33:02;;;;;;;;;;;9.40;99.90;;;;;;5076289;28;19974;-82
2023/04/29 01:35:34;;;;;;;;;;;9.40;99.90;;;;;;5065295;28;19927;-82
2023/04/29 01:38:08;;;;;;;;;;;9.40;99.90;;;;;;5092964;28;19931;-82
2023/04/29 01:40:34;;;;;;;;;;;9.40;99.90;;;;;;5079508;28;20357;-82
2023/04/29 01:43:00;;;;;;;;;;;9.40;99.90;;;;;;5094984;28;19946;-82
2023/04/29 01:45:27;;;;;;;;;;;9.40;99.90;;;;;;5095953;28;19936;-82
2023/04/29 01:47:55;;;;;;;;;;;9.40;99.90;;;;;;5073290;28;20459;-82
2023/04/29 01:50:20;;;;;;;;;;;9.40;99.90;;;;;;5075678;28;19925;-82
2023/04/29 01:52:46;;;;;;;;;;;9.40;99.90;;;;;;5077763;28;19950;-82
2023/04/29 01:55:11;;;;;;;;;;;9.40;99.90;;;;;;5078140;28;19950;-82
2023/04/29 01:57:37;;;;;;;;;;;9.40;99.90;;;;;;5078729;28;20043;-82
2023/04/29 02:00:03;;;;;;;;;;;9.40;99.90;;;;;;5075197;28;19939;-82
2023/04/29 02:02:29;;;;;;;;;;;9.40;99.90;;;;;;5078828;28;19951;-81
2023/04/29 02:04:55;;;;;;;;;;;9.40;99.90;;;;;;5061054;28;19928;-82
2023/04/29 02:07:20;;;;;;;;;;;9.40;99.90;;;;;;5060871;28;19928;-81
2023/04/29 02:09:46;;;;;;;;;;;9.40;99.90;;;;;;5093883;28;20015;-81
2023/04/29 02:12:11;;;;;;;;;;;9.40;99.90;;;;;;5076520;28;19928;-81
2023/04/29 02:14:37;;;;;;;;;;;9.40;99.90;;;;;;5077730;28;19929;-82
2023/04/29 02:17:03;;;;;;;;;;;9.40;99.90;;;;;;5080588;28;19935;-81
2023/04/29 02:19:28;;;;;;;;;;;9.40;99.90;;;;;;5073908;28;19946;-81
2023/04/29 02:21:54;;;;;;;;;;;9.40;99.90;;;;;;5075774;28;19924;-81
2023/04/29 02:24:19;;;;;;;;;;;9.40;99.90;;;;;;5092716;28;19970;-81
2023/04/29 02:26:45;;;;;;;;;;;9.30;99.90;;;;;;5077151;28;19978;-81
2023/04/29 02:29:11;;;;;;;;;;;9.30;99.90;;;;;;5091980;28;19924;-82
2023/04/29 02:31:37;;;;;;;;;;;9.30;99.90;;;;;;5092036;28;20388;-83
2023/04/29 02:34:03;;;;;;;;;;;9.20;99.90;;;;;;5076675;28;19932;-82
2023/04/29 02:36:29;;;;;;;;;;;9.20;99.90;;;;;;5069539;28;19925;-82
2023/04/29 02:38:55;;;;;;;;;;;9.30;99.90;;;;;;5050949;28;19971;-82
2023/04/29 02:41:21;;;;;;;;;;;9.20;99.90;;;;;;5062493;28;19933;-82
2023/04/29 02:43:47;;;;;;;;;;;9.20;99.90;;;;;;5047082;28;19998;-82
2023/04/29 02:46:13;;;;;;;;;;;9.20;99.90;;;;;;5092459;28;19928;-82
2023/04/29 02:48:39;;;;;;;;;;;9.20;99.90;;;;;;5089267;28;20024;-81
2023/04/29 02:51:05;;;;;;;;;;;9.20;99.90;;;;;;5093222;28;19986;-82
2023/04/29 02:53:31;;;;;;;;;;;9.20;99.90;;;;;;5074301;28;19978;-82
2023/04/29 02:55:57;;;;;;;;;;;9.20;99.90;;;;;;5061063;28;19924;-82
2023/04/29 02:58:22;;;;;;;;;;;9.20;99.90;;;;;;5091107;28;19933;-82
2023/04/29 03:00:48;;;;;;;;;;;9.20;99.90;;;;;;5093630;28;19936;-82
2023/04/29 03:03:14;;;;;;;;;;;9.20;99.90;;;;;;5073290;28;19928;-82
2023/04/29 03:05:39;;;;;;;;;;;9.20;99.90;;;;;;5092760;28;19932;-82
2023/04/29 03:08:06;;;;;;;;;;;9.20;99.90;;;;;;5092466;28;19973;-82
2023/04/29 03:10:32;;;;;;;;;;;9.20;99.90;;;;;;5074585;28;19928;-82
2023/04/29 03:12:57;;;;;;;;;;;9.20;99.90;;;;;;5073071;28;19972;-82
2023/04/29 03:15:23;;;;;;;;;;;9.20;99.90;;;;;;5093138;28;19951;-82
2023/04/29 03:17:48;;;;;;;;;;;9.20;99.90;;;;;;5043878;28;20020;-82
2023/04/29 03:20:14;;;;;;;;;;;9.20;99.90;;;;;;5074705;28;19962;-82
2023/04/29 03:22:40;;;;;;;;;;;9.20;99.90;;;;;;5091054;28;20411;-81
2023/04/29 03:25:05;;;;;;;;;;;9.20;99.90;;;;;;5073824;28;19926;-82
2023/04/29 03:27:31;;;;;;;;;;;9.10;99.90;;;;;;5075676;28;19965;-82
2023/04/29 03:29:57;;;;;;;;;;;9.10;99.90;;;;;;5069434;28;20023;-82
2023/04/29 03:32:23;;;;;;;;;;;9.10;99.90;;;;;;5070736;28;19931;-82
2023/04/29 03:34:48;;;;;;;;;;;9.10;99.90;;;;;;5088948;28;19936;-82
2023/04/29 03:37:15;;;;;;;;;;;9.10;99.90;;;;;;5074394;28;19924;-82
2023/04/29 03:39:41;;;;;;;;;;;9.10;99.90;;;;;;5092013;28;20334;-82
2023/04/29 03:42:06;;;;;;;;;;;9.10;99.90;;;;;;5076474;28;19924;-82
2023/04/29 03:44:32;;;;;;;;;;;9.10;99.90;;;;;;5080594;28;20057;-82
2023/04/29 03:46:58;;;;;;;;;;;9.10;99.90;;;;;;5091565;28;19928;-82
2023/04/29 03:49:24;;;;;;;;;;;9.00;99.90;;;;;;5042428;28;21070;-82
2023/04/29 03:51:50;;;;;;;;;;;9.00;99.90;;;;;;5091705;28;19928;-82
2023/04/29 03:54:15;;;;;;;;;;;9.00;99.90;;;;;;5087702;28;19925;-81
2023/04/29 03:56:42;;;;;;;;;;;9.00;99.90;;;;;;5091252;28;19950;-82
2023/04/29 03:59:07;;;;;;;;;;;9.00;99.90;;;;;;5072787;28;19932;-82
2023/04/29 04:01:33;;;;;;;;;;;9.00;99.90;;;;;;5106219;28;19928;-82
2023/04/29 04:03:59;;;;;;;;;;;9.00;99.90;;;;;;5090558;28;19943;-82
2023/04/29 04:06:25;;;;;;;;;;;9.00;99.90;;;;;;5088813;28;19931;-82
2023/04/29 04:08:50;;;;;;;;;;;9.00;99.90;;;;;;5093969;28;19932;-82
2023/04/29 04:11:16;;;;;;;;;;;9.00;99.90;;;;;;5092095;28;20348;-82
2023/04/29 04:13:42;;;;;;;;;;;9.00;99.90;;;;;;5091265;28;19932;-82
2023/04/29 04:16:10;;;;;;;;;;;9.00;99.90;;;;;;5058163;28;19925;-81
2023/04/29 04:18:37;;;;;;;;;;;9.00;99.90;;;;;;5054667;28;19948;-82
2023/04/29 04:21:06;;;;;;;;;;;9.00;99.90;;;;;;5071940;28;19925;-82
2023/04/29 04:23:32;;;;;;;;;;;9.00;99.90;;;;;;5084942;28;20004;-82
2023/04/29 04:25:57;;;;;;;;;;;9.00;99.90;;;;;;5088120;28;19928;-81
2023/04/29 04:28:23;;;;;;;;;;;8.90;99.90;;;;;;5047888;28;20023;-82
2023/04/29 04:30:49;;;;;;;;;;;8.90;99.90;;;;;;5076454;28;19924;-81
2023/04/29 04:33:15;;;;;;;;;;;8.90;99.90;;;;;;5090479;28;19928;-83
2023/04/29 04:35:41;;;;;;;;;;;8.90;99.90;;;;;;5077025;28;19932;-82
2023/04/29 04:38:08;;;;;;;;;;;8.90;99.90;;;;;;5094533;28;20007;-82
2023/04/29 04:40:33;;;;;;;;;;;8.90;99.90;;;;;;5055661;28;19937;-82
2023/04/29 04:42:59;;;;;;;;;;;8.90;99.90;;;;;;5079106;28;20033;-82
2023/04/29 04:45:27;;;;;;;;;;;8.90;99.90;;;;;;5065924;28;19978;-82
2023/04/29 04:47:52;;;;;;;;;;;8.90;99.90;;;;;;5095685;28;19929;-82
2023/04/29 04:50:19;;;;;;;;;;;8.90;99.90;;;;;;5078925;28;19929;-82
2023/04/29 04:52:44;;;;;;;;;;;8.90;99.90;;;;;;5096471;28;20391;-82
2023/04/29 04:55:10;;;;;;;;;;;8.90;99.90;;;;;;5078335;28;20331;-82
2023/04/29 04:57:36;;;;;;;;;;;8.90;99.90;;;;;;5071255;28;19968;-82
2023/04/29 05:00:02;;;;;;;;;;;8.90;99.90;;;;;;5089632;28;20015;-82
2023/04/29 05:02:28;;;;;;;;;;;8.90;99.90;;;;;;5080582;28;20003;-82
2023/04/29 05:04:54;;;;;;;;;;;8.90;99.90;;;;;;5061957;28;19970;-82
2023/04/29 05:07:19;;;;;;;;;;;8.90;99.90;;;;;;5077092;28;20027;-82
2023/04/29 05:09:45;;;;;;;;;;;8.90;99.90;;;;;;5073676;28;19925;-82
2023/04/29 05:12:11;;;;;;;;;;;8.90;99.90;;;;;;5076352;28;19924;-82
2023/04/29 05:14:36;;;;;;;;;;;8.90;99.90;;;;;;5055633;28;19947;-82
2023/04/29 05:17:02;;;;;;;;;;;9.00;99.90;;;;;;5061638;28;19931;-81
2023/04/29 05:19:27;;;;;;;;;;;8.90;99.90;;;;;;5093977;28;20264;-82
2023/04/29 05:21:53;;;;;;;;;;;8.90;99.90;;;;;;5045229;28;19928;-82
2023/04/29 05:24:19;;;;;;;;;;;9.00;99.90;;;;;;5078034;28;19928;-82
2023/04/29 05:26:45;;;;;;;;;;;9.00;99.90;;;;;;5078898;28;19934;-82
2023/04/29 05:29:11;;;;;;;;;;;9.00;99.90;;;;;;5066274;28;20015;-82
2023/04/29 05:31:37;;;;;;;;;;;9.00;99.90;;;;;;5061447;28;19979;-81
2023/04/29 05:34:06;;;;;;;;;;;9.00;99.90;;;;;;5085567;28;19936;-82
2023/04/29 05:36:31;;;;;;;;;;;9.00;99.90;;;;;;5074328;28;19929;-82
2023/04/29 05:38:57;;;;;;;;;;;9.10;99.90;;;;;;5072330;28;19924;-82
2023/04/29 05:41:23;;;;;;;;;;;9.00;99.90;;;;;;5073535;28;19970;-82
2023/04/29 05:43:49;;;;;;;;;;;9.00;99.90;;;;;;5087549;28;20326;-83
2023/04/29 05:46:15;;;;;;;;;;;9.10;99.90;;;;;;5100616;28;19924;-82
2023/04/29 05:48:41;;;;;;;;;;;9.10;99.90;;;;;;5078308;28;19924;-82
2023/04/29 05:51:06;;;;;;;;;;;9.10;99.90;;;;;;5092052;28;20294;-83
2023/04/29 05:53:32;;;;;;;;;;;9.20;99.90;;;;;;5078752;28;20022;-82
2023/04/29 05:55:57;;;;;;;;;;;9.20;99.90;;;;;;5093894;28;19928;-82
2023/04/29 05:58:24;;;;;;;;;;;9.20;99.90;;;;;;5094567;28;19991;-82
2023/04/29 06:00:50;;;;;;;;;;;9.20;99.90;;;;;;5093278;28;19925;-82
2023/04/29 06:03:16;;;;;;;;;;;9.30;99.90;;;;;;5093935;28;19928;-82
2023/04/29 06:05:41;;;;;;;;;;;9.30;99.90;;;;;;5093962;28;20011;-82
2023/04/29 06:08:07;;;;;;;;;;;9.30;99.90;;;;;;5077768;28;19986;-82
2023/04/29 06:10:32;;;;;;;;;;;9.30;99.90;;;;;;5077109;28;19928;-83
2023/04/29 06:12:58;;;;;;;;;;;9.40;99.90;;;;;;5064575;28;19925;-82
2023/04/29 06:15:24;;;;;;;;;;;9.40;99.90;;;;;;5078877;28;19954;-82
2023/04/29 06:17:49;;;;;;;;;;;9.40;99.90;;;;;;5090960;28;19931;-82
2023/04/29 06:20:15;;;;;;;;;;;9.50;99.90;;;;;;5076990;28;19996;-82
2023/04/29 06:22:41;;;;;;;;;;;9.50;99.90;;;;;;5073498;28;19925;-83
2023/04/29 06:25:06;;;;;;;;;;;9.50;99.90;;;;;;5071397;28;19987;-83
2023/04/29 06:27:32;;;;;;;;;;;9.60;99.90;;;;;;5093227;28;20012;-83
2023/04/29 06:29:57;;;;;;;;;;;9.70;99.90;;;;;;5092868;28;19943;-82
2023/04/29 06:32:23;;;;;;;;;;;9.70;99.90;;;;;;5090060;28;19932;-82
2023/04/29 06:34:49;;;;;;;;;;;9.80;99.90;;;;;;5076705;28;19978;-82
2023/04/29 06:37:15;;;;;;;;;;;9.90;99.90;;;;;;5070334;28;19924;-82
2023/04/29 06:39:40;;;;;;;;;;;9.90;99.90;;;;;;5061702;28;20054;-82
2023/04/29 06:42:06;;;;;;;;;;;9.90;99.90;;;;;;5073986;28;19987;-82
2023/04/29 06:44:32;;;;;;;;;;;10.00;99.90;;;;;;5066172;28;19979;-82
2023/04/29 06:46:57;;;;;;;;;;;10.00;99.90;;;;;;5042851;28;19928;-83
2023/04/29 06:49:23;;;;;;;;;;;10.00;99.90;;;;;;5075891;28;20383;-83
2023/04/29 06:51:48;;;;;;;;;;;10.10;99.90;;;;;;5093349;28;19925;-82
2023/04/29 06:54:14;;;;;;;;;;;10.20;99.90;;;;;;5066086;28;19924;-82
2023/04/29 06:56:40;;;;;;;;;;;10.30;99.90;;;;;;5089706;28;19924;-84
2023/04/29 06:59:06;;;;;;;;;;;10.30;99.90;;;;;;5076494;28;19925;-83
2023/04/29 07:01:31;;;;;;;;;;;10.40;99.90;;;;;;5078467;28;20287;-82
2023/04/29 07:03:57;;;;;;;;;;;10.50;99.90;;;;;;5072095;28;19955;-82
2023/04/29 07:06:22;;;;;;;;;;;10.60;99.90;;;;;;5075956;28;19932;-82
2023/04/29 07:08:48;;;;;;;;;;;10.70;99.90;;;;;;5092316;28;19980;-82
2023/04/29 07:11:14;;;;;;;;;;;10.80;99.90;;;;;;5065122;28;19960;-83
2023/04/29 07:13:39;;;;;;;;;;;11.00;99.90;;;;;;5080329;28;20055;-83
2023/04/29 07:16:13;;;;;;;;;;;11.10;99.90;;;;;;5060717;28;19929;-83
2023/04/29 07:18:39;;;;;;;;;;;11.20;99.90;;;;;;5080890;28;19964;-83
2023/04/29 07:21:05;;;;;;;;;;;11.40;99.90;;;;;;5081708;28;19958;-84
2023/04/29 07:23:30;;;;;;;;;;;11.60;99.90;;;;;;5059655;28;19972;-83
2023/04/29 07:25:56;;;;;;;;;;;11.70;99.90;;;;;;5078074;28;19935;-84
2023/04/29 07:28:21;;;;;;;;;;;12.10;99.90;;;;;;5088365;28;19979;-83
2023/04/29 07:30:48;;;;;;;;;;;12.50;99.90;;;;;;5092023;28;19970;-83
2023/04/29 07:33:13;;;;;;;;;;;12.70;99.90;;;;;;5092970;28;19929;-84
2023/04/29 07:35:41;;;;;;;;;;;13.10;99.90;;;;;;5075526;28;19932;-83
2023/04/29 07:38:07;;;;;;;;;;;13.60;99.90;;;;;;5080796;28;20023;-84
2023/04/29 07:40:33;;;;;;;;;;;13.80;99.90;;;;;;5075457;28;19933;-84
2023/04/29 07:43:00;;;;;;;;;;;14.00;99.90;;;;;;5048924;28;19971;-82
2023/04/29 07:45:26;;;;;;;;;;;14.50;99.90;;;;;;5057975;28;19983;-84
2023/04/29 07:47:51;;;;;;;;;;;14.90;99.90;;;;;;5074141;28;19956;-83
2023/04/29 07:50:17;;;;;;;;;;;15.00;99.90;;;;;;5066113;28;19925;-84
2023/04/29 07:52:43;;;;;;;;;;;15.10;99.90;;;;;;5069533;28;19956;-84
2023/04/29 07:55:08;;;;;;;;;;;15.50;99.90;;;;;;5093645;28;19924;-86
2023/04/29 07:57:34;;;;;;;;;;;15.70;99.90;;;;;;5074213;28;19980;-84
2023/04/29 08:00:00;;;;;;;;;;;15.90;99.90;;;;;;5075709;28;19924;-84
2023/04/29 08:02:25;;;;;;;;;;;16.20;99.90;;;;;;5092082;28;19924;-85
2023/04/29 08:04:52;;;;;;;;;;;16.30;99.90;;;;;;5092915;28;19936;-84
2023/04/29 08:07:18;;;;;;;;;;;16.40;99.90;;;;;;5072384;28;19925;-84
2023/04/29 08:09:44;;;;;;;;;;;16.40;99.90;;;;;;5077481;28;19928;-86
2023/04/29 08:12:09;;;;;;;;;;;16.20;99.90;;;;;;5095013;28;19928;-84
2023/04/29 08:14:36;;;;;;;;;;;16.30;99.90;;;;;;5099529;28;20486;-85
2023/04/29 08:17:02;;;;;;;;;;;16.50;99.90;;;;;;5063975;28;19928;-84
2023/04/29 08:19:28;;;;;;;;;;;16.70;99.90;;;;;;5062416;28;20035;-86
2023/04/29 08:21:54;;;;;;;;;;;16.90;99.90;;;;;;5096857;28;19929;-84
2023/04/29 08:24:21;;;;;;;;;;;17.00;99.90;;;;;;5067485;28;19929;-86
2023/04/29 08:26:47;;;;;;;;;;;17.10;99.90;;;;;;5070015;28;19924;-85
2023/04/29 08:29:12;;;;;;;;;;;17.20;99.50;;;;;;5079483;28;19988;-84
2023/04/29 08:31:38;;;;;;;;;;;17.40;99.90;;;;;;5066612;28;19925;-84
2023/04/29 08:34:03;;;;;;;;;;;17.50;99.20;;;;;;5039318;28;19939;-84
2023/04/29 08:36:29;;;;;;;;;;;17.70;98.10;;;;;;5065288;28;19971;-84
2023/04/29 08:38:55;;;;;;;;;;;17.80;95.90;;;;;;5083061;28;19932;-83
2023/04/29 08:41:20;;;;;;;;;;;17.80;98.60;;;;;;5082888;28;19988;-84
2023/04/29 08:43:46;;;;;;;;;;;17.70;97.40;;;;;;5092079;28;20270;-85
2023/04/29 08:46:12;;;;;;;;;;;17.50;98.10;;;;;;5052848;28;19925;-84
2023/04/29 08:48:41;;;;;;;;;;;16.90;98.90;;;;;;5063388;28;19924;-84
2023/04/29 08:51:07;;;;;;;;;;;16.50;99.50;;;;;;5094019;28;19936;-78
2023/04/29 08:53:32;;;;;;;;;;;16.60;99.90;;;;;;5061686;28;19925;-82
2023/04/29 08:56:07;;;;;;;;;;;16.60;99.50;;;;;;5061180;28;20552;-81
2023/04/29 08:58:33;;;;;;;;;;;16.60;99.10;;;;;;5065997;28;19966;-81
2023/04/29 09:00:59;;;;;;;;;;;16.70;99.90;;;;;;5091947;28;19980;-82
2023/04/29 09:03:36;;;;;;;;;;;17.00;99.90;;;;;;5069781;28;20463;-77
2023/04/29 09:06:02;;;;;;;;;;;17.50;99.90;;;;;;5073530;28;19925;-78
2023/04/29 09:08:28;;;;;;;;;;;17.80;99.50;;;;;;5054669;28;19933;-79
2023/04/29 09:10:55;;;;;;;;;;;18.10;99.10;;;;;;5093152;28;19928;-77
2023/04/29 09:13:30;;;;;;;;;;;17.80;98.90;;;;;;5076429;28;19962;-83
2023/04/29 09:15:56;;;;;;;;;;;17.20;97.40;;;;;;5087419;28;19939;-77
2023/04/29 09:18:40;;;;;;;;;;;16.70;99.70;;;;;;5076307;28;20545;-78
2023/04/29 09:21:19;;;;;;;;;;;16.10;95.80;;;;;;5092250;28;19924;-75
2023/04/29 09:23:46;;;;;;;;;;;15.80;99.90;;;;;;5090441;28;19924;-79
2023/04/29 09:26:12;;;;;;;;;;;16.10;99.90;;;;;;5091436;28;19934;-80
2023/04/29 09:28:40;;;;;;;;;;;16.60;99.90;;;;;;5076931;28;19963;-80
2023/04/29 09:31:07;;;;;;;;;;;17.10;97.10;;;;;;5079418;28;19928;-82
2023/04/29 09:33:53;;;;;;;;;;;17.70;99.90;;;;;;5077240;28;19930;-80
2023/04/29 09:36:37;;;;;;;;;;;18.10;96.30;;;;;;5095106;28;19932;-80
2023/04/29 09:39:10;;;;;;;;;;;18.40;97.20;;;;;;5047541;28;19935;-80
2023/04/29 09:41:40;;;;;;;;;;;18.60;94.90;;;;;;5083511;28;19935;-78
2023/04/29 09:44:06;;;;;;;;;;;18.70;94.10;;;;;;5085000;28;19924;-83
2023/04/29 09:46:32;;;;;;;;;;;18.90;95.90;;;;;;5051052;28;19937;-86
2023/04/29 09:48:58;;;;;;;;;;;19.00;96.00;;;;;;5055888;28;20022;-82
2023/04/29 09:51:24;;;;;;;;;;;18.50;92.40;;;;;;5085422;28;19928;-78
2023/04/29 09:53:49;;;;;;;;;;;17.90;91.80;;;;;;5077248;28;20434;-81
2023/04/29 09:56:15;;;;;;;;;;;17.60;92.90;;;;;;5095560;28;19925;-75
2023/04/29 09:58:40;;;;;;;;;;;17.50;95.10;;;;;;5085500;28;19925;-76
2023/04/29 10:01:07;;;;;;;;;;;17.70;93.30;;;;;;5076072;28;20470;-76
2023/04/29 10:03:33;;;;;;;;;;;18.10;96.70;;;;;;5076685;28;19932;-77
2023/04/29 10:05:59;;;;;;;;;;;18.30;94.50;;;;;;5060320;28;19925;-78
2023/04/29 10:08:26;;;;;;;;;;;18.30;93.00;;;;;;5092326;28;19924;-78
2023/04/29 10:10:56;;;;;;;;;;;18.00;92.80;;;;;;5081247;28;19928;-76
2023/04/29 10:13:25;;;;;;;;;;;18.00;93.70;;;;;;5065698;28;19931;-76
2023/04/29 10:15:55;;;;;;;;;;;18.10;92.80;;;;;;5063950;28;19928;-75
2023/04/29 10:18:25;;;;;;;;;;;18.20;91.60;;;;;;5094314;28;20379;-76
2023/04/29 10:20:51;;;;;;;;;;;18.00;91.80;;;;;;5076968;28;19932;-77
2023/04/29 10:23:19;;;;;;;;;;;17.60;92.30;;;;;;5094857;28;19924;-76
2023/04/29 10:25:45;;;;;;;;;;;17.30;92.70;;;;;;5076933;28;19924;-76
2023/04/29 10:28:15;;;;;;;;;;;17.30;93.80;;;;;;5044624;28;19929;-78
2023/04/29 10:30:42;;;;;;;;;;;17.60;94.40;;;;;;5093406;28;19928;-76
2023/04/29 10:33:09;;;;;;;;;;;17.80;92.10;;;;;;5095526;28;20364;-76
2023/04/29 10:35:35;;;;;;;;;;;18.00;91.10;;;;;;5068607;28;19936;-77
2023/04/29 10:38:05;;;;;;;;;;;17.70;89.30;;;;;;5076205;28;19928;-77
2023/04/29 10:40:35;;;;;;;;;;;17.40;89.70;;;;;;5093062;28;19928;-76
2023/04/29 10:43:01;;;;;;;;;;;17.10;91.50;;;;;;5092162;28;20372;-77
2023/04/29 10:45:31;;;;;;;;;;;16.80;92.10;;;;;;5069299;28;19971;-79
2023/04/29 10:48:09;;;;;;;;;;;16.70;90.30;;;;;;5077496;28;19928;-79
2023/04/29 10:50:47;;;;;;;;;;;16.70;91.80;;;;;;5090748;28;19932;-79
2023/04/29 10:53:13;;;;;;;;;;;16.70;91.40;;;;;;5082243;28;19935;-77
2023/04/29 10:55:39;;;;;;;;;;;16.90;91.10;;;;;;5091481;28;19931;-75
2023/04/29 10:58:05;;;;;;;;;;;17.10;90.70;;;;;;5076700;28;20394;-77
2023/04/29 11:00:32;;;;;;;;;;;17.40;89.90;;;;;;5087555;28;19924;-77
2023/04/29 11:02:58;;;;;;;;;;;17.70;90.50;;;;;;5084357;28;19930;-77
2023/04/29 11:05:36;;;;;;;;;;;17.80;90.50;;;;;;5091338;28;19932;-82
2023/04/29 11:08:11;;;;;;;;;;;17.90;85.60;;;;;;5093568;28;19924;-77
2023/04/29 11:10:41;;;;;;;;;;;17.90;86.60;;;;;;5093110;28;19975;-77
2023/04/29 11:13:25;;;;;;;;;;;17.80;86.00;;;;;;5081314;28;19933;-77
2023/04/29 11:15:52;;;;;;;;;;;17.60;85.50;;;;;;5071531;28;20364;-78
2023/04/29 11:18:17;;;;;;;;;;;17.50;79.20;;;;;;5075744;28;20295;-77
2023/04/29 11:21:02;;;;;;;;;;;17.40;75.80;;;;;;5088372;28;19924;-76
2023/04/29 11:23:27;;;;;;;;;;;17.60;84.60;;;;;;5065447;28;19924;-78
2023/04/29 11:25:53;;;;;;;;;;;17.80;81.40;;;;;;5093146;28;20033;-76
2023/04/29 11:28:19;;;;;;;;;;;17.90;80.70;;;;;;5075227;28;20542;-78
2023/04/29 11:30:45;;;;;;;;;;;17.90;77.90;;;;;;5092293;28;19928;-78
2023/04/29 11:33:10;;;;;;;;;;;17.90;73.90;;;;;;5060601;28;19932;-78
2023/04/29 11:35:38;;;;;;;;;;;18.00;83.10;;;;;;5059737;28;19983;-80
2023/04/29 11:38:04;;;;;;;;;;;18.00;78.00;;;;;;5060043;28;19940;-79
2023/04/29 11:40:31;;;;;;;;;;;18.10;80.20;;;;;;5075368;28;19924;-78
2023/04/29 11:42:56;;;;;;;;;;;18.10;82.20;;;;;;5059164;28;19963;-80
2023/04/29 11:45:22;;;;;;;;;;;18.00;72.50;;;;;;5078731;28;19928;-78
2023/04/29 11:47:48;;;;;;;;;;;18.10;79.50;;;;;;5067083;28;19925;-80
2023/04/29 11:50:16;;;;;;;;;;;18.10;78.80;;;;;;5085061;28;19939;-81
2023/04/29 11:52:43;;;;;;;;;;;18.20;79.60;;;;;;5085587;28;19925;-80
2023/04/29 11:55:10;;;;;;;;;;;18.20;77.80;;;;;;5058795;28;19934;-73
2023/04/29 11:57:36;;;;;;;;;;;18.10;71.90;;;;;;5093838;28;19992;-80
2023/04/29 12:00:03;;;;;;;;;;;18.10;77.90;;;;;;5089209;28;19924;-78
2023/04/29 12:02:32;;;;;;;;;;;18.20;79.80;;;;;;5092178;28;19931;-78
2023/04/29 12:05:11;;;;;;;;;;;18.40;78.00;;;;;;5089383;28;19956;-78
2023/04/29 12:07:37;;;;;;;;;;;18.40;76.20;;;;;;5056925;28;19936;-75
2023/04/29 12:10:06;;;;;;;;;;;18.50;78.40;;;;;;5059022;28;20011;-80
2023/04/29 12:12:35;;;;;;;;;;;18.60;81.90;;;;;;5056729;28;20019;-81
2023/04/29 12:15:02;;;;;;;;;;;18.70;79.00;;;;;;5075510;28;19929;-80
2023/04/29 12:17:28;;;;;;;;;;;18.80;79.20;;;;;;5075643;28;19924;-77
2023/04/29 12:19:54;;;;;;;;;;;18.80;77.30;;;;;;5092565;28;19936;-79
2023/04/29 12:22:19;;;;;;;;;;;18.70;76.70;;;;;;5091980;28;19928;-81
2023/04/29 12:24:45;;;;;;;;;;;18.80;75.50;;;;;;5075411;28;19967;-81
2023/04/29 12:27:11;;;;;;;;;;;18.80;78.20;;;;;;5042749;28;20305;-78
2023/04/29 12:29:37;;;;;;;;;;;18.80;77.10;;;;;;5076047;28;20347;-77
2023/04/29 12:32:03;;;;;;;;;;;18.70;74.00;;;;;;5083871;28;19932;-77
2023/04/29 12:34:29;;;;;;;;;;;18.40;75.30;;;;;;5071344;28;20341;-80
2023/04/29 12:36:56;;;;;;;;;;;18.20;77.20;;;;;;5074599;28;19935;-77
2023/04/29 12:39:22;;;;;;;;;;;18.20;79.90;;;;;;5074879;28;19924;-79
2023/04/29 12:41:47;;;;;;;;;;;18.30;79.40;;;;;;5075082;28;19985;-83
2023/04/29 12:44:14;;;;;;;;;;;18.50;78.70;;;;;;5072703;28;19933;-81
2023/04/29 12:46:40;;;;;;;;;;;18.70;74.70;;;;;;5091173;28;19967;-75
2023/04/29 12:49:06;;;;;;;;;;;18.80;77.00;;;;;;5093293;28;20346;-77
2023/04/29 12:51:32;;;;;;;;;;;18.70;73.80;;;;;;5086479;28;19954;-82
2023/04/29 12:54:06;;;;;;;;;;;18.50;76.90;;;;;;5073489;28;19932;-79
2023/04/29 12:56:32;;;;;;;;;;;18.40;73.60;;;;;;5076332;28;19933;-81
2023/04/29 12:59:07;;;;;;;;;;;18.20;76.20;;;;;;5096258;28;19972;-83
2023/04/29 13:01:33;;;;;;;;;;;18.00;77.00;;;;;;5094836;28;19924;-82
2023/04/29 13:03:58;;;;;;;;;;;17.90;76.40;;;;;;5061072;28;20311;-83
2023/04/29 13:06:24;;;;;;;;;;;17.70;78.10;;;;;;5079763;28;19928;-75
2023/04/29 13:08:53;;;;;;;;;;;17.50;75.80;;;;;;5090705;28;19925;-77
2023/04/29 13:11:19;;;;;;;;;;;17.50;74.10;;;;;;5076649;28;19924;-76
2023/04/29 13:13:45;;;;;;;;;;;17.30;76.80;;;;;;5077420;28;19925;-74
2023/04/29 13:16:10;;;;;;;;;;;17.10;77.90;;;;;;5056116;28;19982;-74
2023/04/29 13:18:36;;;;;;;;;;;16.80;74.20;;;;;;5075729;28;19932;-75
2023/04/29 13:21:02;;;;;;;;;;;16.90;77.40;;;;;;5095264;28;19932;-74
2023/04/29 13:23:27;;;;;;;;;;;17.00;78.50;;;;;;5077163;28;20424;-74
2023/04/29 13:25:53;;;;;;;;;;;17.10;78.00;;;;;;5092100;28;20386;-77
2023/04/29 13:28:18;;;;;;;;;;;17.30;74.10;;;;;;5077219;28;20272;-74
2023/04/29 13:30:44;;;;;;;;;;;17.40;75.20;;;;;;5060177;28;20105;-80
2023/04/29 13:33:10;;;;;;;;;;;17.50;73.00;;;;;;5042867;28;19946;-76
2023/04/29 13:35:37;;;;;;;;;;;17.60;75.50;;;;;;5078599;28;19928;-82
2023/04/29 13:38:02;;;;;;;;;;;17.60;74.00;;;;;;5094267;28;19944;-78
2023/04/29 13:40:29;;;;;;;;;;;17.60;74.00;;;;;;5095272;28;20000;-80
2023/04/29 13:42:55;;;;;;;;;;;17.60;75.30;;;;;;5076514;28;20422;-83
2023/04/29 13:45:20;;;;;;;;;;;17.70;74.00;;;;;;5078374;28;19929;-81
2023/04/29 13:47:46;;;;;;;;;;;17.60;72.20;;;;;;5077924;28;19935;-84
2023/04/29 13:50:12;;;;;;;;;;;17.50;72.40;;;;;;5076753;28;19928;-81
2023/04/29 13:52:37;;;;;;;;;;;17.50;73.30;;;;;;5075956;28;19924;-73
2023/04/29 13:55:03;;;;;;;;;;;17.50;73.90;;;;;;5095160;28;20219;-73
2023/04/29 13:57:29;;;;;;;;;;;17.60;75.90;;;;;;5077943;28;19924;-75
2023/04/29 13:59:54;;;;;;;;;;;17.60;73.30;;;;;;5094474;28;19928;-76
2023/04/29 14:02:20;;;;;;;;;;;17.70;75.40;;;;;;5076793;28;19931;-74
2023/04/29 14:04:46;;;;;;;;;;;17.60;73.70;;;;;;5110586;28;19935;-76
2023/04/29 14:07:12;;;;;;;;;;;17.60;73.70;;;;;;5077776;28;19996;-82
2023/04/29 14:09:39;;;;;;;;;;;17.60;74.10;;;;;;5094082;28;19928;-76
2023/04/29 14:12:04;;;;;;;;;;;17.60;72.60;;;;;;5061891;28;19939;-83
2023/04/29 14:14:30;;;;;;;;;;;17.60;74.40;;;;;;5093644;28;19924;-77
2023/04/29 14:16:56;;;;;;;;;;;17.50;72.50;;;;;;5093239;28;19924;-77
2023/04/29 14:19:21;;;;;;;;;;;17.50;74.50;;;;;;5091582;28;19931;-81
2023/04/29 14:21:47;;;;;;;;;;;17.50;72.60;;;;;;5082351;28;19933;-74